createdAt,value
2018-06-19T00:04:12.630Z,19.80
2018-06-19T00:09:15.693Z,14.37
2018-06-19T00:14:18.752Z,18.50
2018-06-19T00:19:21.886Z,15.30
2018-06-19T00:24:24.951Z,17.70
2018-06-19T00:29:27.968Z,18.67
2018-06-19T00:34:31.011Z,16.23
2018-06-19T00:39:34.046Z,17.53
2018-06-19T00:44:37.086Z,16.93
2018-06-19T00:49:40.089Z,20.20
2018-06-19T00:54:43.166Z,20.33
2018-06-19T00:59:46.243Z,22.53
2018-06-19T01:04:49.318Z,22.10
2018-06-19T01:09:52.313Z,23.87
2018-06-19T01:14:55.342Z,16.93
2018-06-19T01:19:58.361Z,23.20
2018-06-19T01:25:01.409Z,19.80
2018-06-19T01:30:04.550Z,23.43
2018-06-19T01:35:07.656Z,23.93
2018-06-19T01:40:10.680Z,18.83
2018-06-19T01:45:13.868Z,21.63
2018-06-19T01:50:16.933Z,22.10
2018-06-19T01:55:19.986Z,18.33
2018-06-19T02:00:23.006Z,26.03
2018-06-19T02:05:26.062Z,22.40
2018-06-19T02:10:29.061Z,24.30
2018-06-19T02:15:32.099Z,20.50
2018-06-19T02:20:35.203Z,25.87
2018-06-19T02:25:38.271Z,22.70
2018-06-19T02:30:41.309Z,19.50
2018-06-19T02:35:44.514Z,19.33
2018-06-19T02:40:48.998Z,22.70
2018-06-19T02:45:52.082Z,17.67
2018-06-19T02:50:55.099Z,16.80
2018-06-19T02:55:58.136Z,18.27
2018-06-19T03:01:01.149Z,21.10
2018-06-19T03:06:04.519Z,23.03
2018-06-19T03:11:07.602Z,24.43
2018-06-19T03:16:10.663Z,21.20
2018-06-19T03:21:13.697Z,18.77
2018-06-19T03:26:16.714Z,18.30
2018-06-19T03:31:19.735Z,22.40
2018-06-19T03:36:22.755Z,19.63
2018-06-19T03:41:25.752Z,14.17
2018-06-19T03:46:28.728Z,20.57
2018-06-19T03:51:31.705Z,15.67
2018-06-19T03:56:34.746Z,24.73
2018-06-19T04:01:37.758Z,13.43
2018-06-19T04:06:40.748Z,13.37
2018-06-19T04:11:43.806Z,18.90
2018-06-19T04:16:46.887Z,12.23
2018-06-19T04:21:49.934Z,9.50
2018-06-19T04:26:52.940Z,10.00
2018-06-19T04:31:55.975Z,9.57
2018-06-19T04:36:59.022Z,10.73
2018-06-19T04:42:02.046Z,11.90
2018-06-19T04:47:05.030Z,9.50
2018-06-19T04:52:08.097Z,7.77
2018-06-19T04:57:11.109Z,8.70
2018-06-19T05:02:14.187Z,7.90
2018-06-19T05:07:17.285Z,11.13
2018-06-19T05:12:20.292Z,5.10
2018-06-19T05:17:23.409Z,5.57
2018-06-19T05:22:26.385Z,7.30
2018-06-19T05:27:29.390Z,4.70
2018-06-19T05:32:32.374Z,6.00
2018-06-19T05:37:35.373Z,8.47
2018-06-19T05:42:38.405Z,5.30
2018-06-19T05:47:41.390Z,4.60
2018-06-19T05:52:44.450Z,6.30
2018-06-19T05:57:47.414Z,9.63
2018-06-19T06:02:50.419Z,6.40
2018-06-19T06:07:53.388Z,4.80
2018-06-19T06:12:56.357Z,14.50
2018-06-19T06:17:59.390Z,8.40
2018-06-19T06:23:02.382Z,9.80
2018-06-19T06:28:05.484Z,4.23
2018-06-19T06:33:08.492Z,8.60
2018-06-19T06:38:11.498Z,6.50
2018-06-19T06:43:14.534Z,5.30
2018-06-19T06:48:17.549Z,11.30
2018-06-19T06:53:20.528Z,7.17
2018-06-19T06:58:23.814Z,7.60
2018-06-19T07:03:26.812Z,6.70
2018-06-19T07:08:29.826Z,6.60
2018-06-19T07:13:32.902Z,21.70
2018-06-19T07:18:35.872Z,8.33
2018-06-19T07:23:38.852Z,7.70
2018-06-19T07:28:41.845Z,11.80
2018-06-19T07:33:44.874Z,6.87
2018-06-19T07:38:47.929Z,6.23
2018-06-19T07:43:50.943Z,5.93
2018-06-19T07:48:54.205Z,10.10
2018-06-19T07:53:57.175Z,8.80
2018-06-19T07:59:00.180Z,11.53
2018-06-19T08:04:03.177Z,7.80
2018-06-19T08:09:08.762Z,19.57
2018-06-19T08:14:11.745Z,7.00
2018-06-19T08:19:14.858Z,15.37
2018-06-19T08:24:17.845Z,9.40
2018-06-19T08:29:20.821Z,4.30
2018-06-19T08:34:23.788Z,10.60
2018-06-19T08:39:26.796Z,9.43
2018-06-19T08:44:29.798Z,16.27
2018-06-19T08:49:32.791Z,11.63
2018-06-19T08:54:35.754Z,7.13
2018-06-19T08:59:38.829Z,8.20
2018-06-19T09:04:41.881Z,8.70
2018-06-19T09:09:44.974Z,10.70
2018-06-19T09:14:48.009Z,11.40
2018-06-19T09:19:51.032Z,13.63
2018-06-19T09:24:54.039Z,15.90
2018-06-19T09:29:57.028Z,14.27
2018-06-19T09:35:00.022Z,14.33
2018-06-19T09:40:03.086Z,18.93
2018-06-19T09:45:06.148Z,18.30
2018-06-19T09:50:09.118Z,17.57
2018-06-19T09:55:12.185Z,19.70
2018-06-19T10:00:21.744Z,16.97
2018-06-19T10:05:24.753Z,17.77
2018-06-19T10:10:27.825Z,23.13
2018-06-19T10:15:30.850Z,14.57
2018-06-19T10:20:33.873Z,15.90
2018-06-19T10:25:36.903Z,18.43
2018-06-19T10:30:39.905Z,14.90
2018-06-19T10:35:42.889Z,15.60
2018-06-19T10:40:45.920Z,15.67
2018-06-19T10:45:49.011Z,18.43
2018-06-19T10:50:52.389Z,21.33
2018-06-19T10:55:55.397Z,17.40
2018-06-19T11:00:58.422Z,17.00
2018-06-19T11:06:01.438Z,15.10
2018-06-19T11:11:04.504Z,19.77
2018-06-19T11:16:07.531Z,15.80
2018-06-19T11:21:10.575Z,20.60
2018-06-19T11:26:14.070Z,13.00
2018-06-19T11:31:17.088Z,16.27
2018-06-19T11:36:20.110Z,16.10
2018-06-19T11:41:23.141Z,18.07
2018-06-19T11:46:26.125Z,17.33
2018-06-19T11:51:29.214Z,14.73
2018-06-19T11:56:32.189Z,19.17
2018-06-19T12:01:35.180Z,16.13
2018-06-19T12:06:38.182Z,17.97
2018-06-19T12:11:41.251Z,18.00
2018-06-19T12:16:44.290Z,20.90
2018-06-19T12:21:47.349Z,19.33
2018-06-19T12:26:50.486Z,22.23
2018-06-19T12:31:53.483Z,25.70
2018-06-19T12:36:56.462Z,19.63
2018-06-19T12:41:59.494Z,17.97
2018-06-19T12:47:02.498Z,17.43
2018-06-19T12:52:22.821Z,17.43
2018-06-19T12:57:25.861Z,23.63
2018-06-19T13:02:28.829Z,17.17
2018-06-19T13:07:31.818Z,16.73
2018-06-19T13:13:24.668Z,21.47
2018-06-19T13:18:45.028Z,19.47
2018-06-19T13:23:48.074Z,17.50
2018-06-19T13:30:09.118Z,16.47
2018-06-19T13:35:12.117Z,15.53
2018-06-19T13:41:30.121Z,16.60
2018-06-19T13:46:33.162Z,12.13
2018-06-19T13:51:36.198Z,16.27
2018-06-19T13:56:51.206Z,13.80
2018-06-19T14:01:54.388Z,12.10
2018-06-19T14:06:57.327Z,12.67
2018-06-19T14:12:24.462Z,13.00
2018-06-19T14:17:27.493Z,14.63
2018-06-19T14:22:30.510Z,18.73
2018-06-19T14:27:33.653Z,19.30
2018-06-19T14:32:36.640Z,17.57
2018-06-19T14:37:39.955Z,20.67
2018-06-19T14:42:42.950Z,17.17
2018-06-19T14:47:45.958Z,19.67
2018-06-19T14:52:48.953Z,17.13
2018-06-19T14:57:52.054Z,18.07
2018-06-19T15:02:55.092Z,14.73
2018-06-19T15:07:58.165Z,18.77
2018-06-19T15:13:01.230Z,15.83
2018-06-19T15:18:05.142Z,21.60
2018-06-19T15:23:08.153Z,15.17
2018-06-19T15:28:11.131Z,18.63
2018-06-19T15:33:14.310Z,18.20
2018-06-19T15:38:17.318Z,17.53
2018-06-19T15:43:20.337Z,17.40
2018-06-19T15:48:23.430Z,18.80
2018-06-19T15:53:26.599Z,20.10
2018-06-19T15:58:29.756Z,22.47
2018-06-19T16:03:32.846Z,20.87
2018-06-19T16:08:35.859Z,22.10
2018-06-19T16:13:38.946Z,29.03
2018-06-19T16:18:49.174Z,22.07
2018-06-19T16:23:52.393Z,26.53
2018-06-19T16:28:56.939Z,24.93
2018-06-19T16:34:00.052Z,24.47
2018-06-19T16:39:05.243Z,21.97
2018-06-19T16:44:08.426Z,24.07
2018-06-19T16:49:11.462Z,24.20
2018-06-19T16:54:14.475Z,27.30
2018-06-19T16:59:19.510Z,36.10
2018-06-19T17:04:23.575Z,30.50
2018-06-19T17:09:26.879Z,32.23
2018-06-19T17:14:30.085Z,25.97
2018-06-19T17:19:33.727Z,31.07
2018-06-19T17:24:36.843Z,28.33
2018-06-19T17:29:39.989Z,27.03
2018-06-19T17:34:43.166Z,27.70
2018-06-19T17:39:46.401Z,28.73
2018-06-19T17:44:49.394Z,31.33
2018-06-19T17:49:52.550Z,22.40
2018-06-19T17:54:55.577Z,21.60
2018-06-19T17:59:58.846Z,22.27
2018-06-19T18:05:01.913Z,26.53
2018-06-19T18:10:04.997Z,21.00
2018-06-19T18:15:08.106Z,22.23
2018-06-19T18:20:11.219Z,18.83
2018-06-19T18:25:14.322Z,21.10
2018-06-19T18:30:17.402Z,24.20
2018-06-19T18:35:20.449Z,17.77
2018-06-19T18:40:23.465Z,20.43
2018-06-19T18:45:26.559Z,21.20
2018-06-19T18:50:29.650Z,18.17
2018-06-19T18:55:32.860Z,18.23
2018-06-19T19:00:36.115Z,25.30
2018-06-19T19:05:41.344Z,24.67
2018-06-19T19:10:49.682Z,23.80
2018-06-19T19:15:58.478Z,22.60
2018-06-19T19:21:02.970Z,18.80
2018-06-19T19:26:06.944Z,25.30
2018-06-19T19:31:10.200Z,18.20
2018-06-19T19:37:17.243Z,22.03
2018-06-19T19:42:20.912Z,21.80
2018-06-19T19:48:31.817Z,22.40
2018-06-19T19:53:35.710Z,18.90
2018-06-19T19:58:44.386Z,19.50
2018-06-19T20:03:48.101Z,18.80
2018-06-19T20:08:51.132Z,18.87
2018-06-19T20:13:54.237Z,21.67
2018-06-19T20:18:57.299Z,22.23
2018-06-19T20:24:00.355Z,23.73
2018-06-19T20:29:03.844Z,31.30
2018-06-19T20:34:06.968Z,22.10
2018-06-19T20:39:10.178Z,20.50
2018-06-19T20:44:13.197Z,20.40
2018-06-19T20:49:16.209Z,23.73
2018-06-19T20:54:19.269Z,17.00
2018-06-19T20:59:22.349Z,18.33
2018-06-19T21:04:25.692Z,18.03
2018-06-19T21:09:28.742Z,22.00
2018-06-19T21:14:31.858Z,19.97
2018-06-19T21:19:34.909Z,19.50
2018-06-19T21:24:37.965Z,20.43
2018-06-19T21:29:41.008Z,20.30
2018-06-19T21:34:44.035Z,18.00
2018-06-19T21:39:47.055Z,21.47
2018-06-19T21:44:50.365Z,21.77
2018-06-19T21:49:53.382Z,18.27
2018-06-19T21:54:56.404Z,19.47
2018-06-19T21:59:59.416Z,21.03
2018-06-19T22:05:03.726Z,24.07
2018-06-19T22:10:06.773Z,21.10
2018-06-19T22:15:09.790Z,20.70
2018-06-19T22:20:12.814Z,19.93
2018-06-19T22:25:15.862Z,19.27
2018-06-19T22:30:18.886Z,19.93
2018-06-19T22:35:21.946Z,17.70
2018-06-19T22:40:25.085Z,20.30
2018-06-19T22:45:28.111Z,17.07
2018-06-19T22:50:31.154Z,20.23
2018-06-19T22:55:34.246Z,23.00
2018-06-19T23:00:37.274Z,20.77
2018-06-19T23:05:40.339Z,21.03
2018-06-19T23:10:43.330Z,32.60
2018-06-19T23:15:46.342Z,20.57
2018-06-19T23:20:49.429Z,21.77
2018-06-19T23:25:52.498Z,23.07
2018-06-19T23:30:55.573Z,26.93
2018-06-19T23:35:58.638Z,22.60
2018-06-19T23:41:01.700Z,22.43
2018-06-19T23:46:04.721Z,25.63
2018-06-19T23:51:07.746Z,26.87
2018-06-19T23:56:10.798Z,27.87
